Time;durP1;ratioP1;P1;durP2;ratioP2;P2;SDS_P1;SDS_P2;PMS_P1;PMS_P2;Temp;Humidity;BMP_temperature;BMP_pressure;BME280_temperature;BME280_humidity;BME280_pressure;Samples;Min_cycle;Max_cycle;Signal;HPM_P1;HPM_P2
2023/04/02 00:09:32;;;;;;;11.40;9.70;;;;;;;3.38;100.00;98538.41;436583;1251;139894;-66
2023/04/02 00:19:43;;;;;;;10.30;8.40;;;;;;;3.33;100.00;98548.34;436829;1251;140169;-67
2023/04/02 00:29:50;;;;;;;10.10;8.80;;;;;;;3.28;100.00;98554.63;436884;1253;140181;-65
2023/04/02 00:40:00;;;;;;;11.50;10.00;;;;;;;3.29;100.00;98564.81;438154;1254;138831;-67
2023/04/02 00:50:19;;;;;;;13.00;11.70;;;;;;;3.27;100.00;98564.20;436445;1251;139942;-68
2023/04/02 01:00:31;;;;;;;13.30;11.00;;;;;;;3.24;100.00;98577.52;436249;1253;139681;-67
2023/04/02 01:10:49;;;;;;;11.20;10.10;;;;;;;3.19;100.00;98584.29;436737;1250;139145;-67
2023/04/02 01:21:27;;;;;;;12.10;10.40;;;;;;;3.13;100.00;98592.55;436354;1253;139024;-67
2023/04/02 01:31:34;;;;;;;15.10;12.10;;;;;;;3.05;100.00;98597.25;436572;1251;139752;-67
2023/04/02 01:41:43;;;;;;;;;;;;;;;3.01;100.00;98602.46;436848;1253;138919;-67
2023/04/02 01:51:53;;;;;;;13.70;12.10;;;;;;;3.00;100.00;98606.16;437084;1253;125354;-66
2023/04/02 02:02:03;;;;;;;12.40;11.10;;;;;;;2.99;100.00;98618.29;436495;1251;140112;-65
2023/04/02 02:12:13;;;;;;;9.50;8.50;;;;;;;2.94;100.00;98628.21;437322;1254;139899;-66
2023/04/02 02:22:27;;;;;;;9.80;8.30;;;;;;;2.88;100.00;98634.58;437473;1253;139092;-66
2023/04/02 02:32:36;;;;;;;7.90;7.10;;;;;;;2.80;100.00;98641.84;436814;1253;139361;-67
2023/04/02 02:42:49;;;;;;;7.80;7.10;;;;;;;2.74;100.00;98651.48;436381;1254;140736;-66
2023/04/02 02:52:58;;;;;;;8.60;7.20;;;;;;;2.73;100.00;98658.05;437637;1254;138976;-65
2023/04/02 03:03:06;;;;;;;6.60;5.90;;;;;;;2.77;100.00;98669.64;437343;1256;140488;-67
2023/04/02 03:13:21;;;;;;;6.40;5.80;;;;;;;2.78;100.00;98676.72;436481;1253;140433;-66
2023/04/02 03:23:32;;;;;;;6.60;6.00;;;;;;;2.81;100.00;98689.88;438147;1254;139025;-67
2023/04/02 03:33:42;;;;;;;5.70;5.20;;;;;;;2.77;100.00;98697.15;437267;1253;139090;-67
2023/04/02 03:43:52;;;;;;;5.60;5.10;;;;;;;2.66;100.00;98698.70;436787;1253;139545;-67
2023/04/02 03:53:58;;;;;;;4.90;4.40;;;;;;;2.56;100.00;98707.08;436398;1256;139806;-66
2023/04/02 04:04:10;;;;;;;6.30;4.90;;;;;;;2.54;100.00;98724.45;436481;1254;138500;-66
2023/04/02 04:14:19;;;;;;;8.20;6.60;;;;;;;2.51;100.00;98742.20;437442;1253;139689;-65
2023/04/02 04:24:27;;;;;;;8.60;7.90;;;;;;;2.51;100.00;98759.46;436147;1254;139298;-65
2023/04/02 04:34:45;;;;;;;5.90;5.40;;;;;;;2.47;100.00;98772.61;437091;1253;139826;-64
2023/04/02 04:44:57;;;;;;;5.10;4.60;;;;;;;2.38;100.00;98781.28;436938;1250;140655;-65
2023/04/02 04:55:04;;;;;;;6.30;5.70;;;;;;;2.33;100.00;98795.48;436949;1253;139208;-65
2023/04/02 05:05:20;;;;;;;6.50;5.80;;;;;;;2.28;100.00;98807.79;436957;1253;138454;-66
2023/04/02 05:15:30;;;;;;;5.50;5.00;;;;;;;2.23;100.00;98817.47;436563;1251;139000;-66
2023/04/02 05:25:38;;;;;;;4.80;4.40;;;;;;;2.12;100.00;98827.77;437250;1254;139675;-68
2023/04/02 05:35:48;;;;;;;5.70;5.20;;;;;;;2.06;100.00;98852.38;437412;1253;138865;-66
2023/04/02 05:45:58;;;;;;;3.60;3.30;;;;;;;1.93;100.00;98866.71;437076;1251;139210;-65
2023/04/02 05:56:11;;;;;;;4.50;4.10;;;;;;;1.78;100.00;98878.18;437050;1251;139468;-66
2023/04/02 06:06:26;;;;;;;7.10;6.50;;;;;;;1.69;100.00;98893.67;436737;1251;139386;-67
2023/04/02 06:16:33;;;;;;;8.00;7.20;;;;;;;1.62;100.00;98907.41;437213;1251;140322;-66
2023/04/02 06:26:43;;;;;;;7.80;7.00;;;;;;;1.64;100.00;98925.61;436706;1251;139733;-67
2023/04/02 06:36:51;;;;;;;7.00;6.30;;;;;;;1.64;100.00;98936.00;436460;1251;138904;-67
2023/04/02 06:47:02;;;;;;;6.30;5.70;;;;;;;1.73;100.00;98944.27;436292;1250;139133;-67
2023/04/02 06:57:09;;;;;;;6.40;5.80;;;;;;;1.90;100.00;98962.63;437093;1254;139706;-68
2023/04/02 07:07:15;;;;;;;4.40;3.80;;;;;;;2.07;100.00;98973.22;437061;1252;139146;-67
2023/04/02 07:17:21;;;;;;;7.50;6.80;;;;;;;2.15;100.00;98982.18;437276;1253;138763;-68
2023/04/02 07:27:27;;;;;;;5.20;4.80;;;;;;;2.08;100.00;99011.48;437400;1251;140786;-67
2023/04/02 07:37:33;;;;;;;4.60;4.20;;;;;;;1.98;100.00;99029.97;437125;1251;139443;-67
2023/04/02 07:47:39;;;;;;;6.10;5.60;;;;;;;1.94;100.00;99035.15;437461;1253;139936;-67
2023/04/02 07:57:51;;;;;;;5.90;5.30;;;;;;;1.97;100.00;99045.20;437561;1251;139133;-66
2023/04/02 08:07:57;;;;;;;6.80;6.30;;;;;;;1.95;100.00;99056.50;437093;1251;138526;-65
2023/04/02 08:18:03;;;;;;;8.40;7.70;;;;;;;1.93;100.00;99065.75;436541;1251;139301;-65
2023/04/02 08:28:09;;;;;;;7.30;6.70;;;;;;;1.93;100.00;99078.35;436546;1251;138669;-65
2023/04/02 08:38:21;;;;;;;6.40;5.90;;;;;;;2.01;100.00;99092.54;436687;1253;140975;-66
2023/04/02 08:48:27;;;;;;;6.70;6.10;;;;;;;2.04;100.00;99110.05;436644;1251;138907;-67
2023/04/02 08:58:41;;;;;;;7.60;6.40;;;;;;;2.24;100.00;99120.69;437232;1251;140206;-67
2023/04/02 09:08:50;;;;;;;8.50;7.60;;;;;;;2.24;100.00;99136.23;436677;1253;139168;-66
2023/04/02 09:18:56;;;;;;;6.60;6.00;;;;;;;2.26;100.00;99158.14;436868;1251;140628;-67
2023/04/02 09:29:16;;;;;;;6.90;6.30;;;;;;;2.34;100.00;99178.71;437021;1250;140017;-67
2023/04/02 09:39:24;;;;;;;7.00;6.40;;;;;;;2.36;100.00;99194.20;437027;1253;139546;-67
2023/04/02 09:49:32;;;;;;;5.80;5.40;;;;;;;2.41;100.00;99203.87;436978;1251;139034;-67
2023/04/02 09:59:38;;;;;;;4.50;4.10;;;;;;;2.72;100.00;99210.70;437599;1250;138884;-68
2023/04/02 10:09:44;;;;;;;5.00;4.60;;;;;;;3.18;100.00;99225.87;436953;1251;139699;-67
2023/04/02 10:19:54;;;;;;;6.60;5.60;;;;;;;3.02;100.00;99236.16;436371;1251;140207;-66
2023/04/02 10:30:09;;;;;;;4.00;3.70;;;;;;;2.87;100.00;99240.39;437838;1250;139687;-67
2023/04/02 10:40:21;;;;;;;4.60;4.20;;;;;;;2.83;100.00;99261.45;437430;1253;141114;-67
2023/04/02 10:50:38;;;;;;;4.10;3.80;;;;;;;2.92;100.00;99271.81;436863;1253;140466;-69
2023/04/02 11:00:46;;;;;;;4.30;3.90;;;;;;;2.81;100.00;99280.19;437106;1250;138591;-68
2023/04/02 11:10:57;;;;;;;4.10;3.70;;;;;;;2.79;100.00;99293.40;437165;1251;138570;-68
2023/04/02 11:21:06;;;;;;;4.30;3.90;;;;;;;2.72;100.00;99313.38;437152;1253;139043;-67
2023/04/02 11:31:21;;;;;;;4.30;3.70;;;;;;;2.82;100.00;99328.20;437734;1250;140353;-68
2023/04/02 11:42:04;;;;;;;4.70;4.30;;;;;;;2.91;100.00;99341.38;437128;1250;139013;-67
2023/04/02 11:52:26;;;;;;;3.90;3.60;;;;;;;2.89;99.96;99353.36;437113;1251;140232;-70
2023/04/02 12:02:39;;;;;;;3.90;3.60;;;;;;;2.94;100.00;99358.39;436872;1251;138885;-68
2023/04/02 12:12:45;;;;;;;4.70;4.30;;;;;;;2.84;99.95;99372.41;437007;1251;138981;-69
2023/04/02 12:22:54;;;;;;;4.00;3.60;;;;;;;3.17;99.46;99375.01;437030;1253;138280;-67
2023/04/02 12:33:16;;;;;;;3.60;3.20;;;;;;;3.26;98.56;99383.69;437642;1253;139341;-68
2023/04/02 12:43:30;;;;;;;3.90;3.60;;;;;;;3.21;98.24;99398.92;437012;1251;139046;-67
2023/04/02 12:53:39;;;;;;;3.80;2.70;;;;;;;2.90;98.46;99415.42;437147;1253;138284;-68
2023/04/02 13:03:58;;;;;;;5.80;4.20;;;;;;;2.62;98.59;99424.85;437209;1251;139439;-68
2023/04/02 13:14:07;;;;;;;4.30;3.90;;;;;;;2.60;99.19;99439.78;436823;1253;139463;-69
2023/04/02 13:24:19;;;;;;;3.40;3.10;;;;;;;2.59;99.30;99441.34;437533;1251;139976;-68
2023/04/02 13:34:25;;;;;;;3.70;3.20;;;;;;;2.49;98.89;99451.73;438116;1253;138658;-68
2023/04/02 13:44:33;;;;;;;4.90;4.00;;;;;;;2.46;99.61;99470.15;435915;1251;139267;-69
2023/04/02 13:54:45;;;;;;;4.40;4.00;;;;;;;2.40;99.86;99479.14;436267;1253;139143;-67
2023/04/02 14:04:56;;;;;;;7.20;6.50;;;;;;;2.34;100.00;99491.42;436588;1251;140306;-68
2023/04/02 14:15:19;;;;;;;3.90;3.60;;;;;;;2.32;100.00;99496.31;436535;1251;138951;-68
2023/04/02 14:25:30;;;;;;;4.40;4.00;;;;;;;2.24;100.00;99511.23;436572;1253;139354;-67
2023/04/02 14:35:41;;;;;;;3.90;3.30;;;;;;;2.23;100.00;99521.80;436929;1253;139346;-67
2023/04/02 14:45:56;;;;;;;12.00;8.20;;;;;;;2.10;100.00;99529.09;436263;1251;141688;-70
2023/04/02 14:56:05;;;;;;;6.40;5.30;;;;;;;1.93;100.00;99546.16;437119;1250;138736;-68
2023/04/02 15:06:15;;;;;;;5.80;4.00;;;;;;;1.77;100.00;99553.70;437065;1253;139175;-67
2023/04/02 15:16:25;;;;;;;4.60;4.00;;;;;;;1.51;100.00;99562.70;437529;1251;138692;-67
2023/04/02 15:26:41;;;;;;;3.40;3.20;;;;;;;1.41;100.00;99573.33;436717;1253;139272;-67
2023/04/02 15:37:05;;;;;;;5.70;5.10;;;;;;;1.36;100.00;99592.26;436860;1253;139286;-67
2023/04/02 15:47:21;;;;;;;9.90;6.50;;;;;;;1.18;100.00;99610.80;437038;1250;139190;-67
2023/04/02 15:57:44;;;;;;;5.90;5.20;;;;;;;0.92;100.00;99625.05;437200;1253;140247;-67
2023/04/02 16:08:17;;;;;;;6.40;5.20;;;;;;;0.61;100.00;99644.04;436830;1251;138868;-65
2023/04/02 16:18:32;;;;;;;5.90;5.30;;;;;;;0.42;100.00;99659.27;437009;1250;140211;-66
2023/04/02 16:28:45;;;;;;;8.20;5.70;;;;;;;0.33;100.00;99673.90;437373;1253;139161;-66
2023/04/02 16:38:59;;;;;;;7.60;5.90;;;;;;;0.24;100.00;99692.17;437059;1253;139270;-66
2023/04/02 16:49:16;;;;;;;8.00;6.60;;;;;;;0.14;100.00;99705.44;437120;1251;139145;-65
2023/04/02 16:59:32;;;;;;;8.20;7.40;;;;;;;0.04;100.00;99723.54;436845;1251;139185;-66
2023/04/02 17:09:49;;;;;;;9.50;7.80;;;;;;;0.02;100.00;99733.21;436951;1253;141615;-64
2023/04/02 17:20:00;;;;;;;10.90;9.30;;;;;;;-0.03;100.00;99748.94;436960;1250;139468;-65
2023/04/02 17:30:16;;;;;;;12.60;10.90;;;;;;;-0.04;100.00;99757.07;436448;1253;138952;-66
2023/04/02 17:40:28;;;;;;;13.00;11.30;;;;;;;0.02;100.00;99769.69;437025;1251;139825;-66
2023/04/02 17:50:50;;;;;;;14.20;12.80;;;;;;;0.05;100.00;99780.14;437520;1251;140349;-67
2023/04/02 18:01:06;;;;;;;17.30;12.90;;;;;;;0.11;100.00;99786.56;437783;1251;139349;-68
2023/04/02 18:11:22;;;;;;;17.00;10.80;;;;;;;0.20;100.00;99800.54;437193;1253;138984;-67
2023/04/02 18:21:35;;;;;;;24.90;12.40;;;;;;;0.31;100.00;99814.98;436813;1250;140556;-68
2023/04/02 18:31:48;;;;;;;13.90;9.80;;;;;;;0.43;100.00;99825.10;436792;1251;139885;-66
2023/04/02 18:42:03;;;;;;;9.80;7.70;;;;;;;0.56;100.00;99842.77;437834;1251;139364;-65
2023/04/02 18:52:14;;;;;;;6.10;5.10;;;;;;;0.64;100.00;99852.27;437396;1251;139110;-66
2023/04/02 19:02:40;;;;;;;5.40;4.30;;;;;;;0.72;100.00;99863.48;437220;1253;141011;-67
2023/04/02 19:12:46;;;;;;;7.20;4.50;;;;;;;0.78;100.00;99873.55;437578;1252;139057;-65
2023/04/02 19:23:02;;;;;;;4.30;3.50;;;;;;;0.80;100.00;99874.20;437585;1250;138580;-68
2023/04/02 19:33:19;;;;;;;5.40;4.40;;;;;;;0.80;100.00;99880.06;437554;1251;139939;-67
2023/04/02 19:43:26;;;;;;;6.00;4.60;;;;;;;0.83;100.00;99882.59;437366;1251;138694;-70
2023/04/02 19:53:32;;;;;;;8.10;6.00;;;;;;;0.87;100.00;99892.52;436911;1253;139323;-70
2023/04/02 20:03:38;;;;;;;8.20;5.40;;;;;;;0.92;100.00;99901.57;436928;1256;139188;-69
2023/04/02 20:13:44;;;;;;;22.40;18.20;;;;;;;0.95;100.00;99906.48;436801;1251;139366;-71
2023/04/02 20:23:54;;;;;;;20.40;18.30;;;;;;;0.99;100.00;99911.08;436957;1250;139103;-70
2023/04/02 20:34:01;;;;;;;10.10;7.80;;;;;;;1.01;100.00;99919.48;436819;1250;139038;-70
2023/04/02 20:44:07;;;;;;;14.50;8.30;;;;;;;1.02;100.00;99929.11;445439;1250;139605;-70
2023/04/02 20:54:13;;;;;;;15.90;7.90;;;;;;;1.07;100.00;99934.20;437118;1253;140172;-69
2023/04/02 21:04:20;;;;;;;8.10;6.10;;;;;;;1.10;100.00;99945.35;437516;1254;140300;-70
2023/04/02 21:14:26;;;;;;;10.60;5.80;;;;;;;1.14;100.00;99955.44;437790;1253;138644;-70
2023/04/02 21:24:32;;;;;;;11.50;4.90;;;;;;;1.15;100.00;99958.20;437453;1252;138685;-69
2023/04/02 21:34:38;;;;;;;8.00;4.00;;;;;;;1.16;100.00;99968.85;437481;1253;138700;-69
2023/04/02 21:44:44;;;;;;;6.80;3.60;;;;;;;1.14;100.00;99980.80;437132;1253;139801;-69
2023/04/02 21:54:50;;;;;;;8.20;5.30;;;;;;;1.07;100.00;99982.66;437594;1253;138590;-68
2023/04/02 22:04:57;;;;;;;5.20;3.40;;;;;;;0.97;100.00;99991.79;437872;1253;138682;-70
2023/04/02 22:15:03;;;;;;;4.30;2.40;;;;;;;0.89;99.41;99997.63;437500;1251;139214;-70
2023/04/02 22:25:10;;;;;;;6.90;2.60;;;;;;;0.79;98.26;100007.80;438838;1254;138998;-70
2023/04/02 22:35:20;;;;;;;6.10;2.70;;;;;;;0.63;97.13;100017.02;440477;1254;138970;-70
2023/04/02 22:45:26;;;;;;;4.50;2.40;;;;;;;0.41;96.21;100027.00;437187;1253;138526;-70
2023/04/02 22:55:32;;;;;;;3.20;2.20;;;;;;;0.10;95.26;100037.06;436639;1251;139707;-69
2023/04/02 23:05:38;;;;;;;3.70;1.90;;;;;;;-0.22;94.71;100044.20;438290;1254;139444;-69
2023/04/02 23:15:46;;;;;;;3.10;2.40;;;;;;;-0.48;94.25;100049.67;438172;1254;139638;-69
2023/04/02 23:26:01;;;;;;;3.40;1.60;;;;;;;-0.68;94.23;100058.48;439231;1253;138771;-69
2023/04/02 23:36:14;;;;;;;5.60;2.10;;;;;;;-0.80;93.63;100054.80;436850;1249;139999;-70
2023/04/02 23:46:20;;;;;;;5.70;3.10;;;;;;;-0.89;93.63;100062.11;438423;1253;138820;-70
2023/04/02 23:56:28;;;;;;;2.40;2.00;;;;;;;-0.92;93.41;100067.99;439337;1251;139620;-69
